sensor_id;sensor_type;location;lat;lon;timestamp;pressure;altitude;pressure_sealevel;temperature;humidity
50087;BME280;35967;50.718;7.050;2023-04-15T00:04:47;99913.91;;;8.52;65.03
50087;BME280;35967;50.718;7.050;2023-04-15T00:14:50;99913.28;;;8.06;66.96
50087;BME280;35967;50.718;7.050;2023-04-15T00:24:55;99906.59;;;8.35;65.25
50087;BME280;35967;50.718;7.050;2023-04-15T00:34:58;99915.56;;;8.18;65.54
50087;BME280;35967;50.718;7.050;2023-04-15T00:45:03;99925.50;;;7.95;65.64
50087;BME280;35967;50.718;7.050;2023-04-15T00:55:08;99931.06;;;7.34;67.73
50087;BME280;35967;50.718;7.050;2023-04-15T01:05:13;99915.94;;;8.01;65.39
50087;BME280;35967;50.718;7.050;2023-04-15T01:15:19;99910.03;;;7.98;65.43
50087;BME280;35967;50.718;7.050;2023-04-15T01:25:30;99908.56;;;7.89;65.29
50087;BME280;35967;50.718;7.050;2023-04-15T01:35:34;99914.69;;;7.42;67.42
50087;BME280;35967;50.718;7.050;2023-04-15T01:45:38;99902.28;;;7.63;65.45
50087;BME280;35967;50.718;7.050;2023-04-15T01:55:41;99910.59;;;7.34;67.13
50087;BME280;35967;50.718;7.050;2023-04-15T02:05:49;99906.50;;;6.83;68.51
50087;BME280;35967;50.718;7.050;2023-04-15T02:15:53;99922.03;;;7.17;65.49
50087;BME280;35967;50.718;7.050;2023-04-15T02:25:58;99914.38;;;6.72;68.82
50087;BME280;35967;50.718;7.050;2023-04-15T02:36:05;99918.19;;;6.96;67.13
50087;BME280;35967;50.718;7.050;2023-04-15T02:46:10;99929.63;;;6.76;66.94
50087;BME280;35967;50.718;7.050;2023-04-15T02:56:15;99932.94;;;6.83;65.70
50087;BME280;35967;50.718;7.050;2023-04-15T03:06:22;99932.50;;;6.59;68.08
50087;BME280;35967;50.718;7.050;2023-04-15T03:16:25;99925.88;;;6.46;68.71
50087;BME280;35967;50.718;7.050;2023-04-15T03:26:31;99932.09;;;6.32;65.84
50087;BME280;35967;50.718;7.050;2023-04-15T03:36:39;99943.75;;;5.93;71.82
50087;BME280;35967;50.718;7.050;2023-04-15T03:46:43;99958.88;;;6.08;70.05
50087;BME280;35967;50.718;7.050;2023-04-15T03:56:46;99968.03;;;6.22;68.66
50087;BME280;35967;50.718;7.050;2023-04-15T04:06:51;99970.22;;;5.85;70.57
50087;BME280;35967;50.718;7.050;2023-04-15T04:16:54;99973.97;;;6.22;69.70
50087;BME280;35967;50.718;7.050;2023-04-15T04:26:58;99969.75;;;5.56;73.68
50087;BME280;35967;50.718;7.050;2023-04-15T04:37:01;99976.84;;;6.02;72.44
50087;BME280;35967;50.718;7.050;2023-04-15T04:47:06;99980.19;;;6.06;70.09
50087;BME280;35967;50.718;7.050;2023-04-15T04:57:09;99989.19;;;5.67;73.48
50087;BME280;35967;50.718;7.050;2023-04-15T05:07:15;100000.75;;;5.95;71.07
50087;BME280;35967;50.718;7.050;2023-04-15T05:17:18;100011.97;;;5.83;73.03
50087;BME280;35967;50.718;7.050;2023-04-15T05:27:23;100024.50;;;6.05;73.71
50087;BME280;35967;50.718;7.050;2023-04-15T05:37:26;100031.69;;;5.73;74.65
50087;BME280;35967;50.718;7.050;2023-04-15T05:47:31;100042.25;;;6.14;75.11
50087;BME280;35967;50.718;7.050;2023-04-15T05:57:34;100060.91;;;6.21;76.44
50087;BME280;35967;50.718;7.050;2023-04-15T06:07:39;100061.47;;;6.40;74.61
50087;BME280;35967;50.718;7.050;2023-04-15T06:17:45;100053.06;;;6.89;73.79
50087;BME280;35967;50.718;7.050;2023-04-15T06:27:50;100063.50;;;7.27;73.84
50087;BME280;35967;50.718;7.050;2023-04-15T06:37:53;100094.75;;;6.94;76.35
50087;BME280;35967;50.718;7.050;2023-04-15T06:47:58;100109.69;;;7.19;76.53
50087;BME280;35967;50.718;7.050;2023-04-15T06:58:01;100103.91;;;7.58;76.38
50087;BME280;35967;50.718;7.050;2023-04-15T07:08:05;100114.06;;;7.61;75.14
50087;BME280;35967;50.718;7.050;2023-04-15T07:18:08;100116.31;;;7.78;74.82
50087;BME280;35967;50.718;7.050;2023-04-15T07:28:14;100131.81;;;8.16;76.02
50087;BME280;35967;50.718;7.050;2023-04-15T07:38:17;100136.78;;;8.24;75.93
50087;BME280;35967;50.718;7.050;2023-04-15T07:48:21;100144.09;;;8.42;76.41
50087;BME280;35967;50.718;7.050;2023-04-15T07:58:24;100159.13;;;8.97;74.33
50087;BME280;35967;50.718;7.050;2023-04-15T08:08:29;100165.16;;;9.30;76.20
50087;BME280;35967;50.718;7.050;2023-04-15T08:18:32;100170.31;;;9.65;75.66
50087;BME280;35967;50.718;7.050;2023-04-15T08:28:38;100175.97;;;10.09;74.92
50087;BME280;35967;50.718;7.050;2023-04-15T08:38:43;100183.50;;;10.17;74.99
50087;BME280;35967;50.718;7.050;2023-04-15T08:48:48;100187.16;;;10.40;74.53
50087;BME280;35967;50.718;7.050;2023-04-15T08:58:52;100191.47;;;10.68;74.09
50087;BME280;35967;50.718;7.050;2023-04-15T09:08:56;100193.50;;;10.86;73.45
50087;BME280;35967;50.718;7.050;2023-04-15T09:19:00;100206.69;;;11.31;72.40
50087;BME280;35967;50.718;7.050;2023-04-15T09:29:24;100208.84;;;11.95;66.53
50087;BME280;35967;50.718;7.050;2023-04-15T09:39:44;100225.66;;;12.31;58.29
50087;BME280;35967;50.718;7.050;2023-04-15T09:49:55;100231.25;;;12.19;55.18
50087;BME280;35967;50.718;7.050;2023-04-15T09:59:59;100229.34;;;12.71;54.13
50087;BME280;35967;50.718;7.050;2023-04-15T10:10:05;100238.91;;;12.91;53.46
50087;BME280;35967;50.718;7.050;2023-04-15T10:20:11;100238.25;;;13.53;52.91
50087;BME280;35967;50.718;7.050;2023-04-15T10:30:16;100243.78;;;14.06;52.87
50087;BME280;35967;50.718;7.050;2023-04-15T10:40:28;100250.38;;;14.33;52.65
50087;BME280;35967;50.718;7.050;2023-04-15T10:50:33;100256.75;;;13.85;51.14
50087;BME280;35967;50.718;7.050;2023-04-15T11:00:36;100261.88;;;13.66;51.84
50087;BME280;35967;50.718;7.050;2023-04-15T11:10:51;100272.69;;;14.15;53.70
50087;BME280;35967;50.718;7.050;2023-04-15T11:21:00;100286.94;;;13.84;55.86
50087;BME280;35967;50.718;7.050;2023-04-15T11:31:09;100306.47;;;13.71;56.75
50087;BME280;35967;50.718;7.050;2023-04-15T11:41:13;100305.38;;;13.32;57.43
50087;BME280;35967;50.718;7.050;2023-04-15T11:51:17;100326.66;;;13.17;58.25
50087;BME280;35967;50.718;7.050;2023-04-15T12:01:30;100338.78;;;12.92;59.23
50087;BME280;35967;50.718;7.050;2023-04-15T12:11:40;100353.47;;;12.90;59.62
50087;BME280;35967;50.718;7.050;2023-04-15T12:21:46;100368.50;;;13.26;58.89
50087;BME280;35967;50.718;7.050;2023-04-15T12:31:52;100397.06;;;12.76;59.64
50087;BME280;35967;50.718;7.050;2023-04-15T12:42:15;100406.34;;;12.82;60.93
50087;BME280;35967;50.718;7.050;2023-04-15T12:52:19;100432.81;;;12.36;62.11
50087;BME280;35967;50.718;7.050;2023-04-15T13:02:23;100443.41;;;12.28;63.73
50087;BME280;35967;50.718;7.050;2023-04-15T13:12:30;100459.94;;;12.23;64.87
50087;BME280;35967;50.718;7.050;2023-04-15T13:22:37;100472.31;;;12.13;65.98
50087;BME280;35967;50.718;7.050;2023-04-15T13:32:42;100474.72;;;12.18;67.31
50087;BME280;35967;50.718;7.050;2023-04-15T13:42:45;100488.25;;;11.97;66.95
50087;BME280;35967;50.718;7.050;2023-04-15T13:52:49;100510.09;;;11.84;68.83
50087;BME280;35967;50.718;7.050;2023-04-15T14:02:52;100523.63;;;11.92;70.02
50087;BME280;35967;50.718;7.050;2023-04-15T14:12:56;100529.72;;;11.90;69.25
50087;BME280;35967;50.718;7.050;2023-04-15T14:23:00;100543.63;;;11.84;70.53
50087;BME280;35967;50.718;7.050;2023-04-15T14:33:04;100550.63;;;11.80;71.02
50087;BME280;35967;50.718;7.050;2023-04-15T14:43:07;100561.47;;;11.92;71.76
50087;BME280;35967;50.718;7.050;2023-04-15T14:53:12;100574.97;;;11.70;72.45
50087;BME280;35967;50.718;7.050;2023-04-15T15:03:17;100597.41;;;11.66;73.46
50087;BME280;35967;50.718;7.050;2023-04-15T15:13:21;100604.78;;;11.80;74.05
50087;BME280;35967;50.718;7.050;2023-04-15T15:23:24;100611.38;;;11.59;73.62
50087;BME280;35967;50.718;7.050;2023-04-15T15:33:29;100616.94;;;11.44;76.33
50087;BME280;35967;50.718;7.050;2023-04-15T15:43:32;100629.16;;;11.37;79.59
50087;BME280;35967;50.718;7.050;2023-04-15T15:53:37;100642.47;;;11.53;79.17
50087;BME280;35967;50.718;7.050;2023-04-15T16:03:40;100654.25;;;11.63;80.14
50087;BME280;35967;50.718;7.050;2023-04-15T16:13:45;100672.97;;;11.37;84.85
50087;BME280;35967;50.718;7.050;2023-04-15T16:23:48;100678.88;;;11.04;86.29
50087;BME280;35967;50.718;7.050;2023-04-15T16:33:52;100690.88;;;11.05;85.56
50087;BME280;35967;50.718;7.050;2023-04-15T16:43:56;100708.44;;;11.26;85.56
50087;BME280;35967;50.718;7.050;2023-04-15T16:54:00;100721.38;;;11.23;86.67
50087;BME280;35967;50.718;7.050;2023-04-15T17:04:04;100740.28;;;10.85;87.16
50087;BME280;35967;50.718;7.050;2023-04-15T17:14:08;100747.94;;;10.88;86.79
50087;BME280;35967;50.718;7.050;2023-04-15T17:24:12;100753.50;;;10.70;86.72
50087;BME280;35967;50.718;7.050;2023-04-15T17:34:16;100767.81;;;10.82;88.19
50087;BME280;35967;50.718;7.050;2023-04-15T17:44:20;100782.69;;;10.69;88.36
50087;BME280;35967;50.718;7.050;2023-04-15T17:54:27;100805.63;;;10.81;88.86
50087;BME280;35967;50.718;7.050;2023-04-15T18:04:30;100815.22;;;10.73;88.54
50087;BME280;35967;50.718;7.050;2023-04-15T18:14:35;100824.88;;;10.62;88.67
50087;BME280;35967;50.718;7.050;2023-04-15T18:24:38;100841.22;;;10.59;88.16
50087;BME280;35967;50.718;7.050;2023-04-15T18:34:43;100853.44;;;10.48;89.73
50087;BME280;35967;50.718;7.050;2023-04-15T18:44:46;100865.59;;;10.39;90.60
50087;BME280;35967;50.718;7.050;2023-04-15T18:54:50;100887.22;;;10.29;90.18
50087;BME280;35967;50.718;7.050;2023-04-15T19:04:53;100907.91;;;10.21;90.88
50087;BME280;35967;50.718;7.050;2023-04-15T19:14:57;100920.41;;;10.46;90.54
50087;BME280;35967;50.718;7.050;2023-04-15T19:25:00;100932.03;;;10.14;93.04
50087;BME280;35967;50.718;7.050;2023-04-15T19:35:05;100935.59;;;10.07;94.91
50087;BME280;35967;50.718;7.050;2023-04-15T19:45:12;100954.69;;;9.90;96.68
50087;BME280;35967;50.718;7.050;2023-04-15T19:55:16;100967.81;;;9.70;98.98
50087;BME280;35967;50.718;7.050;2023-04-15T20:05:20;100976.50;;;9.61;100.00
50087;BME280;35967;50.718;7.050;2023-04-15T20:15:24;100980.97;;;9.47;100.00
50087;BME280;35967;50.718;7.050;2023-04-15T20:25:28;100980.19;;;9.42;100.00
50087;BME280;35967;50.718;7.050;2023-04-15T20:35:32;100990.56;;;9.32;100.00
50087;BME280;35967;50.718;7.050;2023-04-15T20:45:35;100998.13;;;9.43;100.00
50087;BME280;35967;50.718;7.050;2023-04-15T20:55:39;101009.22;;;9.49;99.72
50087;BME280;35967;50.718;7.050;2023-04-15T21:05:47;101007.81;;;9.20;100.00
50087;BME280;35967;50.718;7.050;2023-04-15T21:15:52;101014.69;;;9.19;100.00
50087;BME280;35967;50.718;7.050;2023-04-15T21:25:57;101028.44;;;9.13;100.00
50087;BME280;35967;50.718;7.050;2023-04-15T21:36:01;101042.19;;;9.08;100.00
50087;BME280;35967;50.718;7.050;2023-04-15T21:46:05;101042.25;;;9.02;100.00
50087;BME280;35967;50.718;7.050;2023-04-15T21:56:27;101063.66;;;9.04;100.00
50087;BME280;35967;50.718;7.050;2023-04-15T22:06:30;101069.56;;;9.12;100.00
50087;BME280;35967;50.718;7.050;2023-04-15T22:16:34;101084.94;;;9.13;100.00
50087;BME280;35967;50.718;7.050;2023-04-15T22:26:38;101082.50;;;9.01;100.00
50087;BME280;35967;50.718;7.050;2023-04-15T22:36:42;101091.97;;;8.94;100.00
50087;BME280;35967;50.718;7.050;2023-04-15T22:46:45;101100.53;;;8.93;100.00
50087;BME280;35967;50.718;7.050;2023-04-15T22:56:49;101117.66;;;8.91;100.00
50087;BME280;35967;50.718;7.050;2023-04-15T23:06:52;101119.31;;;8.98;100.00
50087;BME280;35967;50.718;7.050;2023-04-15T23:16:57;101123.56;;;8.99;100.00
50087;BME280;35967;50.718;7.050;2023-04-15T23:27:00;101121.06;;;8.90;100.00
50087;BME280;35967;50.718;7.050;2023-04-15T23:37:04;101131.34;;;8.90;100.00
50087;BME280;35967;50.718;7.050;2023-04-15T23:58:29;101134.94;;;8.71;100.00
